Indian Creek, Florida
Current Conditions -  °F | °C
As of 10:53 AM on Thursday 29 Jan 2015 (Local Time) from KOPF Reporting Station
Scattered Clouds Scattered Clouds  
Wind Chill: 70°   Ceiling: Unl
Heat Index: 70°   Visibility: 10mi
Dew Point: 48°   Wind: 12mph
Humidity: 46%   Direction: 80°E
Pressure: 30.28"   Gusts: NA
Location:  25.882°N, 80.1292°W
Report Text: KOPF 291553Z 08010KT 10SM SCT047 21/09 A3028 RMK AO2 SLP254 T02110089
Loading
Personal Weather Stations






























Interactive Weather Map New forecast layout! Learn more

10-Day Weather Forecast

Advertisements
Track Severe Weather on mobile